sensor_id;sensor_type;location;lat;lon;timestamp;P1;P2;P0
43280;PMS5003;62175;49.416;8.690;2023-06-04T00:01:08;3;3;
43280;PMS5003;62175;49.416;8.690;2023-06-04T00:03:35;4;4;
43280;PMS5003;62175;49.416;8.690;2023-06-04T00:06:02;3;2;
43280;PMS5003;62175;49.416;8.690;2023-06-04T00:08:29;2;1;
43280;PMS5003;62175;49.416;8.690;2023-06-04T00:10:55;2;2;
43280;PMS5003;62175;49.416;8.690;2023-06-04T00:13:23;2;2;
43280;PMS5003;62175;49.416;8.690;2023-06-04T00:15:50;3;3;
43280;PMS5003;62175;49.416;8.690;2023-06-04T00:18:18;2;2;
43280;PMS5003;62175;49.416;8.690;2023-06-04T00:20:46;3;3;
43280;PMS5003;62175;49.416;8.690;2023-06-04T00:23:13;3;3;
43280;PMS5003;62175;49.416;8.690;2023-06-04T00:25:40;2;2;
43280;PMS5003;62175;49.416;8.690;2023-06-04T00:28:07;3;3;
43280;PMS5003;62175;49.416;8.690;2023-06-04T00:30:34;3;2;
43280;PMS5003;62175;49.416;8.690;2023-06-04T00:33:02;2;1;
43280;PMS5003;62175;49.416;8.690;2023-06-04T00:35:31;3;3;
43280;PMS5003;62175;49.416;8.690;2023-06-04T00:37:59;2;2;
43280;PMS5003;62175;49.416;8.690;2023-06-04T00:40:26;2;2;
43280;PMS5003;62175;49.416;8.690;2023-06-04T00:42:53;2;2;
43280;PMS5003;62175;49.416;8.690;2023-06-04T00:45:21;2;1;
43280;PMS5003;62175;49.416;8.690;2023-06-04T00:47:49;2;2;
43280;PMS5003;62175;49.416;8.690;2023-06-04T00:50:16;3;2;
43280;PMS5003;62175;49.416;8.690;2023-06-04T00:52:43;2;1;
43280;PMS5003;62175;49.416;8.690;2023-06-04T00:55:11;4;2;
43280;PMS5003;62175;49.416;8.690;2023-06-04T00:57:38;3;3;
43280;PMS5003;62175;49.416;8.690;2023-06-04T01:00:06;2;2;
43280;PMS5003;62175;49.416;8.690;2023-06-04T01:02:34;2;2;
43280;PMS5003;62175;49.416;8.690;2023-06-04T01:05:07;2;2;
43280;PMS5003;62175;49.416;8.690;2023-06-04T01:07:41;3;2;
43280;PMS5003;62175;49.416;8.690;2023-06-04T01:10:09;2;2;
43280;PMS5003;62175;49.416;8.690;2023-06-04T01:12:38;3;3;
43280;PMS5003;62175;49.416;8.690;2023-06-04T01:15:06;2;2;
43280;PMS5003;62175;49.416;8.690;2023-06-04T01:17:36;3;3;
43280;PMS5003;62175;49.416;8.690;2023-06-04T01:20:13;3;2;
43280;PMS5003;62175;49.416;8.690;2023-06-04T01:22:51;2;1;
43280;PMS5003;62175;49.416;8.690;2023-06-04T01:25:32;2;2;
43280;PMS5003;62175;49.416;8.690;2023-06-04T01:28:03;2;2;
43280;PMS5003;62175;49.416;8.690;2023-06-04T01:30:32;2;2;
43280;PMS5003;62175;49.416;8.690;2023-06-04T01:33:01;6;5;
43280;PMS5003;62175;49.416;8.690;2023-06-04T01:35:29;1;1;
43280;PMS5003;62175;49.416;8.690;2023-06-04T01:37:57;2;2;
43280;PMS5003;62175;49.416;8.690;2023-06-04T01:40:24;3;3;
43280;PMS5003;62175;49.416;8.690;2023-06-04T01:42:51;3;2;
43280;PMS5003;62175;49.416;8.690;2023-06-04T01:45:18;1;1;
43280;PMS5003;62175;49.416;8.690;2023-06-04T01:47:47;2;2;
43280;PMS5003;62175;49.416;8.690;2023-06-04T01:50:14;2;2;
43280;PMS5003;62175;49.416;8.690;2023-06-04T01:52:41;3;3;
43280;PMS5003;62175;49.416;8.690;2023-06-04T01:55:10;1;1;
43280;PMS5003;62175;49.416;8.690;2023-06-04T01:57:38;1;1;
43280;PMS5003;62175;49.416;8.690;2023-06-04T02:00:08;2;2;
43280;PMS5003;62175;49.416;8.690;2023-06-04T02:02:37;2;2;
43280;PMS5003;62175;49.416;8.690;2023-06-04T02:05:04;3;3;
43280;PMS5003;62175;49.416;8.690;2023-06-04T02:07:32;2;2;
43280;PMS5003;62175;49.416;8.690;2023-06-04T02:09:59;1;0;
43280;PMS5003;62175;49.416;8.690;2023-06-04T02:12:26;2;2;
43280;PMS5003;62175;49.416;8.690;2023-06-04T02:14:53;4;3;
43280;PMS5003;62175;49.416;8.690;2023-06-04T02:17:20;2;2;
43280;PMS5003;62175;49.416;8.690;2023-06-04T02:19:47;2;2;
43280;PMS5003;62175;49.416;8.690;2023-06-04T02:22:14;2;2;
43280;PMS5003;62175;49.416;8.690;2023-06-04T02:24:43;2;2;
43280;PMS5003;62175;49.416;8.690;2023-06-04T02:27:11;3;3;
43280;PMS5003;62175;49.416;8.690;2023-06-04T02:29:39;3;3;
43280;PMS5003;62175;49.416;8.690;2023-06-04T02:32:08;2;2;
43280;PMS5003;62175;49.416;8.690;2023-06-04T02:34:35;2;2;
43280;PMS5003;62175;49.416;8.690;2023-06-04T02:37:03;1;1;
43280;PMS5003;62175;49.416;8.690;2023-06-04T02:39:31;2;2;
43280;PMS5003;62175;49.416;8.690;2023-06-04T02:41:58;3;2;
43280;PMS5003;62175;49.416;8.690;2023-06-04T02:44:26;1;1;
43280;PMS5003;62175;49.416;8.690;2023-06-04T02:46:54;2;2;
43280;PMS5003;62175;49.416;8.690;2023-06-04T02:49:22;2;2;
43280;PMS5003;62175;49.416;8.690;2023-06-04T02:51:50;3;3;
43280;PMS5003;62175;49.416;8.690;2023-06-04T02:54:19;2;2;
43280;PMS5003;62175;49.416;8.690;2023-06-04T02:56:47;1;1;
43280;PMS5003;62175;49.416;8.690;2023-06-04T02:59:14;2;2;
43280;PMS5003;62175;49.416;8.690;2023-06-04T03:01:43;2;2;
43280;PMS5003;62175;49.416;8.690;2023-06-04T03:04:10;3;2;
43280;PMS5003;62175;49.416;8.690;2023-06-04T03:06:38;1;1;
43280;PMS5003;62175;49.416;8.690;2023-06-04T03:09:06;2;2;
43280;PMS5003;62175;49.416;8.690;2023-06-04T03:11:34;2;2;
43280;PMS5003;62175;49.416;8.690;2023-06-04T03:14:01;2;2;
43280;PMS5003;62175;49.416;8.690;2023-06-04T03:16:28;2;1;
43280;PMS5003;62175;49.416;8.690;2023-06-04T03:18:54;0;0;
43280;PMS5003;62175;49.416;8.690;2023-06-04T03:21:21;2;2;
43280;PMS5003;62175;49.416;8.690;2023-06-04T03:23:50;2;2;
43280;PMS5003;62175;49.416;8.690;2023-06-04T03:26:17;3;3;
43280;PMS5003;62175;49.416;8.690;2023-06-04T03:28:45;1;1;
43280;PMS5003;62175;49.416;8.690;2023-06-04T03:31:13;2;1;
43280;PMS5003;62175;49.416;8.690;2023-06-04T03:33:41;1;1;
43280;PMS5003;62175;49.416;8.690;2023-06-04T03:36:08;2;2;
43280;PMS5003;62175;49.416;8.690;2023-06-04T03:38:36;3;1;
43280;PMS5003;62175;49.416;8.690;2023-06-04T03:41:04;2;1;
43280;PMS5003;62175;49.416;8.690;2023-06-04T03:43:31;4;2;
43280;PMS5003;62175;49.416;8.690;2023-06-04T03:45:58;2;2;
43280;PMS5003;62175;49.416;8.690;2023-06-04T03:48:25;0;0;
43280;PMS5003;62175;49.416;8.690;2023-06-04T03:50:52;1;1;
43280;PMS5003;62175;49.416;8.690;2023-06-04T03:53:19;1;1;
43280;PMS5003;62175;49.416;8.690;2023-06-04T03:55:48;2;2;
43280;PMS5003;62175;49.416;8.690;2023-06-04T03:58:14;2;2;
43280;PMS5003;62175;49.416;8.690;2023-06-04T04:00:41;2;2;
43280;PMS5003;62175;49.416;8.690;2023-06-04T04:03:08;0;0;
43280;PMS5003;62175;49.416;8.690;2023-06-04T04:05:35;2;2;
43280;PMS5003;62175;49.416;8.690;2023-06-04T04:08:03;2;2;
43280;PMS5003;62175;49.416;8.690;2023-06-04T04:10:30;1;1;
43280;PMS5003;62175;49.416;8.690;2023-06-04T04:12:58;2;1;
43280;PMS5003;62175;49.416;8.690;2023-06-04T04:15:25;2;2;
43280;PMS5003;62175;49.416;8.690;2023-06-04T04:17:52;2;2;
43280;PMS5003;62175;49.416;8.690;2023-06-04T04:20:21;2;2;
43280;PMS5003;62175;49.416;8.690;2023-06-04T04:22:48;1;1;
43280;PMS5003;62175;49.416;8.690;2023-06-04T04:25:15;3;3;
43280;PMS5003;62175;49.416;8.690;2023-06-04T04:27:43;2;2;
43280;PMS5003;62175;49.416;8.690;2023-06-04T04:30:10;2;2;
43280;PMS5003;62175;49.416;8.690;2023-06-04T04:32:39;2;2;
43280;PMS5003;62175;49.416;8.690;2023-06-04T04:35:07;2;2;
43280;PMS5003;62175;49.416;8.690;2023-06-04T04:37:35;2;2;
43280;PMS5003;62175;49.416;8.690;2023-06-04T04:40:02;1;1;
43280;PMS5003;62175;49.416;8.690;2023-06-04T04:42:32;2;2;
43280;PMS5003;62175;49.416;8.690;2023-06-04T04:45:00;3;3;
43280;PMS5003;62175;49.416;8.690;2023-06-04T04:47:28;3;3;
43280;PMS5003;62175;49.416;8.690;2023-06-04T04:49:56;1;1;
43280;PMS5003;62175;49.416;8.690;2023-06-04T04:52:25;3;2;
43280;PMS5003;62175;49.416;8.690;2023-06-04T04:54:53;2;1;
43280;PMS5003;62175;49.416;8.690;2023-06-04T04:57:23;3;2;
43280;PMS5003;62175;49.416;8.690;2023-06-04T04:59:54;3;2;
43280;PMS5003;62175;49.416;8.690;2023-06-04T05:02:23;2;2;
43280;PMS5003;62175;49.416;8.690;2023-06-04T05:04:51;2;2;
43280;PMS5003;62175;49.416;8.690;2023-06-04T05:07:18;2;2;
43280;PMS5003;62175;49.416;8.690;2023-06-04T05:09:46;3;3;
43280;PMS5003;62175;49.416;8.690;2023-06-04T05:12:14;1;1;
43280;PMS5003;62175;49.416;8.690;2023-06-04T05:14:41;1;1;
43280;PMS5003;62175;49.416;8.690;2023-06-04T05:17:09;2;2;
43280;PMS5003;62175;49.416;8.690;2023-06-04T05:19:38;3;2;
43280;PMS5003;62175;49.416;8.690;2023-06-04T05:22:06;3;2;
43280;PMS5003;62175;49.416;8.690;2023-06-04T05:24:33;1;1;
43280;PMS5003;62175;49.416;8.690;2023-06-04T05:27:00;2;2;
43280;PMS5003;62175;49.416;8.690;2023-06-04T05:29:27;2;2;
43280;PMS5003;62175;49.416;8.690;2023-06-04T05:31:55;1;1;
43280;PMS5003;62175;49.416;8.690;2023-06-04T05:34:22;2;2;
43280;PMS5003;62175;49.416;8.690;2023-06-04T05:36:50;1;1;
43280;PMS5003;62175;49.416;8.690;2023-06-04T05:39:17;3;3;
43280;PMS5003;62175;49.416;8.690;2023-06-04T05:41:45;1;1;
43280;PMS5003;62175;49.416;8.690;2023-06-04T05:44:14;2;2;
43280;PMS5003;62175;49.416;8.690;2023-06-04T05:46:41;3;3;
43280;PMS5003;62175;49.416;8.690;2023-06-04T05:49:07;2;2;
43280;PMS5003;62175;49.416;8.690;2023-06-04T05:51:35;2;2;
43280;PMS5003;62175;49.416;8.690;2023-06-04T05:54:03;3;2;
43280;PMS5003;62175;49.416;8.690;2023-06-04T05:56:31;3;2;
43280;PMS5003;62175;49.416;8.690;2023-06-04T05:58:59;2;2;
43280;PMS5003;62175;49.416;8.690;2023-06-04T06:01:26;3;3;
43280;PMS5003;62175;49.416;8.690;2023-06-04T06:03:55;4;3;
43280;PMS5003;62175;49.416;8.690;2023-06-04T06:06:23;2;2;
43280;PMS5003;62175;49.416;8.690;2023-06-04T06:08:50;1;1;
43280;PMS5003;62175;49.416;8.690;2023-06-04T06:11:18;1;1;
43280;PMS5003;62175;49.416;8.690;2023-06-04T06:13:46;3;3;
43280;PMS5003;62175;49.416;8.690;2023-06-04T06:16:14;3;3;
43280;PMS5003;62175;49.416;8.690;2023-06-04T06:18:41;1;1;
43280;PMS5003;62175;49.416;8.690;2023-06-04T06:21:08;2;2;
43280;PMS5003;62175;49.416;8.690;2023-06-04T06:23:34;2;2;
43280;PMS5003;62175;49.416;8.690;2023-06-04T06:26:02;1;1;
43280;PMS5003;62175;49.416;8.690;2023-06-04T06:28:30;0;0;
43280;PMS5003;62175;49.416;8.690;2023-06-04T06:30:57;3;3;
43280;PMS5003;62175;49.416;8.690;2023-06-04T06:33:25;2;2;
43280;PMS5003;62175;49.416;8.690;2023-06-04T06:35:52;1;1;
43280;PMS5003;62175;49.416;8.690;2023-06-04T06:38:19;1;1;
43280;PMS5003;62175;49.416;8.690;2023-06-04T06:40:48;3;2;
43280;PMS5003;62175;49.416;8.690;2023-06-04T06:43:15;2;2;
43280;PMS5003;62175;49.416;8.690;2023-06-04T06:45:42;2;2;
43280;PMS5003;62175;49.416;8.690;2023-06-04T06:48:09;5;3;
43280;PMS5003;62175;49.416;8.690;2023-06-04T06:50:36;3;3;
43280;PMS5003;62175;49.416;8.690;2023-06-04T06:53:03;2;2;
43280;PMS5003;62175;49.416;8.690;2023-06-04T06:55:30;1;1;
43280;PMS5003;62175;49.416;8.690;2023-06-04T06:57:57;3;3;
43280;PMS5003;62175;49.416;8.690;2023-06-04T07:00:25;1;1;
43280;PMS5003;62175;49.416;8.690;2023-06-04T07:02:56;3;2;
43280;PMS5003;62175;49.416;8.690;2023-06-04T07:05:26;2;1;
43280;PMS5003;62175;49.416;8.690;2023-06-04T07:07:54;3;3;
43280;PMS5003;62175;49.416;8.690;2023-06-04T07:10:21;2;2;
43280;PMS5003;62175;49.416;8.690;2023-06-04T07:12:49;3;3;
43280;PMS5003;62175;49.416;8.690;2023-06-04T07:15:16;4;4;
43280;PMS5003;62175;49.416;8.690;2023-06-04T07:17:44;3;3;
43280;PMS5003;62175;49.416;8.690;2023-06-04T07:20:11;3;3;
43280;PMS5003;62175;49.416;8.690;2023-06-04T07:22:39;3;3;
43280;PMS5003;62175;49.416;8.690;2023-06-04T07:25:07;3;3;
43280;PMS5003;62175;49.416;8.690;2023-06-04T07:27:35;3;3;
43280;PMS5003;62175;49.416;8.690;2023-06-04T07:30:06;2;2;
43280;PMS5003;62175;49.416;8.690;2023-06-04T07:32:38;2;2;
43280;PMS5003;62175;49.416;8.690;2023-06-04T07:35:06;3;3;
43280;PMS5003;62175;49.416;8.690;2023-06-04T07:37:35;3;3;
43280;PMS5003;62175;49.416;8.690;2023-06-04T07:40:02;4;4;
43280;PMS5003;62175;49.416;8.690;2023-06-04T07:42:31;3;3;
43280;PMS5003;62175;49.416;8.690;2023-06-04T07:44:59;3;3;
43280;PMS5003;62175;49.416;8.690;2023-06-04T07:47:26;3;3;
43280;PMS5003;62175;49.416;8.690;2023-06-04T07:49:53;3;3;
43280;PMS5003;62175;49.416;8.690;2023-06-04T07:52:20;2;2;
43280;PMS5003;62175;49.416;8.690;2023-06-04T07:54:47;3;3;
43280;PMS5003;62175;49.416;8.690;2023-06-04T07:57:14;3;3;
43280;PMS5003;62175;49.416;8.690;2023-06-04T07:59:41;3;3;
43280;PMS5003;62175;49.416;8.690;2023-06-04T08:02:08;4;3;
43280;PMS5003;62175;49.416;8.690;2023-06-04T08:04:35;5;5;
43280;PMS5003;62175;49.416;8.690;2023-06-04T08:07:04;4;4;
43280;PMS5003;62175;49.416;8.690;2023-06-04T08:09:31;2;2;
43280;PMS5003;62175;49.416;8.690;2023-06-04T08:11:59;3;3;
43280;PMS5003;62175;49.416;8.690;2023-06-04T08:14:27;4;4;
43280;PMS5003;62175;49.416;8.690;2023-06-04T08:16:54;3;3;
43280;PMS5003;62175;49.416;8.690;2023-06-04T08:19:22;3;3;
43280;PMS5003;62175;49.416;8.690;2023-06-04T08:21:49;4;4;
43280;PMS5003;62175;49.416;8.690;2023-06-04T08:24:17;4;4;
43280;PMS5003;62175;49.416;8.690;2023-06-04T08:26:44;4;4;
43280;PMS5003;62175;49.416;8.690;2023-06-04T08:29:13;4;4;
43280;PMS5003;62175;49.416;8.690;2023-06-04T08:31:41;4;3;
43280;PMS5003;62175;49.416;8.690;2023-06-04T08:34:10;3;3;
43280;PMS5003;62175;49.416;8.690;2023-06-04T08:36:38;3;3;
43280;PMS5003;62175;49.416;8.690;2023-06-04T08:39:07;5;5;
43280;PMS5003;62175;49.416;8.690;2023-06-04T08:41:38;3;3;
43280;PMS5003;62175;49.416;8.690;2023-06-04T08:44:09;3;2;
43280;PMS5003;62175;49.416;8.690;2023-06-04T08:46:38;5;5;
43280;PMS5003;62175;49.416;8.690;2023-06-04T08:49:06;3;3;
43280;PMS5003;62175;49.416;8.690;2023-06-04T08:51:36;4;3;
43280;PMS5003;62175;49.416;8.690;2023-06-04T08:54:04;2;2;
43280;PMS5003;62175;49.416;8.690;2023-06-04T08:56:33;3;3;
43280;PMS5003;62175;49.416;8.690;2023-06-04T08:59:02;4;3;
43280;PMS5003;62175;49.416;8.690;2023-06-04T09:01:31;6;6;
43280;PMS5003;62175;49.416;8.690;2023-06-04T09:04:01;3;3;
43280;PMS5003;62175;49.416;8.690;2023-06-04T09:06:32;4;3;
43280;PMS5003;62175;49.416;8.690;2023-06-04T09:09:01;4;3;
43280;PMS5003;62175;49.416;8.690;2023-06-04T09:11:33;3;3;
43280;PMS5003;62175;49.416;8.690;2023-06-04T09:14:09;2;2;
43280;PMS5003;62175;49.416;8.690;2023-06-04T09:16:43;4;4;
43280;PMS5003;62175;49.416;8.690;2023-06-04T09:19:13;3;2;
43280;PMS5003;62175;49.416;8.690;2023-06-04T09:21:48;3;3;
43280;PMS5003;62175;49.416;8.690;2023-06-04T09:24:18;2;1;
43280;PMS5003;62175;49.416;8.690;2023-06-04T09:26:47;2;2;
43280;PMS5003;62175;49.416;8.690;2023-06-04T09:29:18;4;4;
43280;PMS5003;62175;49.416;8.690;2023-06-04T09:31:58;3;3;
43280;PMS5003;62175;49.416;8.690;2023-06-04T09:34:28;2;2;
43280;PMS5003;62175;49.416;8.690;2023-06-04T09:36:56;3;3;
43280;PMS5003;62175;49.416;8.690;2023-06-04T09:39:26;2;2;
43280;PMS5003;62175;49.416;8.690;2023-06-04T09:42:01;5;5;
43280;PMS5003;62175;49.416;8.690;2023-06-04T09:44:43;3;3;
43280;PMS5003;62175;49.416;8.690;2023-06-04T09:47:18;3;3;
43280;PMS5003;62175;49.416;8.690;2023-06-04T09:49:46;3;3;
43280;PMS5003;62175;49.416;8.690;2023-06-04T09:52:32;3;3;
43280;PMS5003;62175;49.416;8.690;2023-06-04T09:56:05;3;3;
43280;PMS5003;62175;49.416;8.690;2023-06-04T09:58:34;3;3;
43280;PMS5003;62175;49.416;8.690;2023-06-04T10:01:09;3;3;
43280;PMS5003;62175;49.416;8.690;2023-06-04T10:03:36;3;3;
43280;PMS5003;62175;49.416;8.690;2023-06-04T10:06:09;3;3;
43280;PMS5003;62175;49.416;8.690;2023-06-04T10:08:37;4;3;
43280;PMS5003;62175;49.416;8.690;2023-06-04T10:11:08;3;3;
43280;PMS5003;62175;49.416;8.690;2023-06-04T10:14:01;3;2;
43280;PMS5003;62175;49.416;8.690;2023-06-04T10:16:33;3;2;
43280;PMS5003;62175;49.416;8.690;2023-06-04T10:19:04;3;3;
43280;PMS5003;62175;49.416;8.690;2023-06-04T10:21:33;3;3;
43280;PMS5003;62175;49.416;8.690;2023-06-04T10:24:01;4;3;
43280;PMS5003;62175;49.416;8.690;2023-06-04T10:26:32;3;3;
43280;PMS5003;62175;49.416;8.690;2023-06-04T10:29:01;3;3;
43280;PMS5003;62175;49.416;8.690;2023-06-04T10:31:32;3;3;
43280;PMS5003;62175;49.416;8.690;2023-06-04T10:33:59;3;2;
43280;PMS5003;62175;49.416;8.690;2023-06-04T10:36:27;3;3;
43280;PMS5003;62175;49.416;8.690;2023-06-04T10:38:54;3;3;
43280;PMS5003;62175;49.416;8.690;2023-06-04T10:41:23;2;2;
43280;PMS5003;62175;49.416;8.690;2023-06-04T10:44:00;2;2;
43280;PMS5003;62175;49.416;8.690;2023-06-04T10:46:37;2;2;
43280;PMS5003;62175;49.416;8.690;2023-06-04T10:49:05;4;3;
43280;PMS5003;62175;49.416;8.690;2023-06-04T10:51:33;2;2;
43280;PMS5003;62175;49.416;8.690;2023-06-04T10:54:02;3;2;
43280;PMS5003;62175;49.416;8.690;2023-06-04T10:56:32;3;3;
43280;PMS5003;62175;49.416;8.690;2023-06-04T10:59:12;3;2;
43280;PMS5003;62175;49.416;8.690;2023-06-04T11:01:43;3;3;
43280;PMS5003;62175;49.416;8.690;2023-06-04T11:04:19;2;2;
43280;PMS5003;62175;49.416;8.690;2023-06-04T11:06:48;2;2;
43280;PMS5003;62175;49.416;8.690;2023-06-04T11:09:26;3;3;
43280;PMS5003;62175;49.416;8.690;2023-06-04T11:12:01;3;3;
43280;PMS5003;62175;49.416;8.690;2023-06-04T11:14:31;2;2;
43280;PMS5003;62175;49.416;8.690;2023-06-04T11:17:08;4;4;
43280;PMS5003;62175;49.416;8.690;2023-06-04T11:19:36;4;3;
43280;PMS5003;62175;49.416;8.690;2023-06-04T11:22:04;3;3;
43280;PMS5003;62175;49.416;8.690;2023-06-04T11:24:32;2;2;
43280;PMS5003;62175;49.416;8.690;2023-06-04T11:26:59;5;5;
43280;PMS5003;62175;49.416;8.690;2023-06-04T11:29:28;5;4;
43280;PMS5003;62175;49.416;8.690;2023-06-04T11:31:55;3;3;
43280;PMS5003;62175;49.416;8.690;2023-06-04T11:34:23;2;2;
43280;PMS5003;62175;49.416;8.690;2023-06-04T11:36:53;3;3;
43280;PMS5003;62175;49.416;8.690;2023-06-04T11:39:22;4;4;
43280;PMS5003;62175;49.416;8.690;2023-06-04T11:41:50;3;2;
43280;PMS5003;62175;49.416;8.690;2023-06-04T11:44:18;4;3;
43280;PMS5003;62175;49.416;8.690;2023-06-04T11:46:45;3;3;
43280;PMS5003;62175;49.416;8.690;2023-06-04T11:49:14;4;4;
43280;PMS5003;62175;49.416;8.690;2023-06-04T11:51:45;2;2;
43280;PMS5003;62175;49.416;8.690;2023-06-04T11:54:13;3;2;
43280;PMS5003;62175;49.416;8.690;2023-06-04T11:56:43;5;4;
43280;PMS5003;62175;49.416;8.690;2023-06-04T12:00:54;2;2;
43280;PMS5003;62175;49.416;8.690;2023-06-04T22:02:55;9;9;
43280;PMS5003;62175;49.416;8.690;2023-06-04T22:05:22;7;7;
43280;PMS5003;62175;49.416;8.690;2023-06-04T22:07:51;8;7;
43280;PMS5003;62175;49.416;8.690;2023-06-04T22:10:38;7;7;
43280;PMS5003;62175;49.416;8.690;2023-06-04T22:13:14;6;6;
43280;PMS5003;62175;49.416;8.690;2023-06-04T22:15:42;7;7;
43280;PMS5003;62175;49.416;8.690;2023-06-04T22:18:17;6;6;
43280;PMS5003;62175;49.416;8.690;2023-06-04T22:20:44;9;6;
43280;PMS5003;62175;49.416;8.690;2023-06-04T22:23:11;9;9;
43280;PMS5003;62175;49.416;8.690;2023-06-04T22:25:38;7;7;
43280;PMS5003;62175;49.416;8.690;2023-06-04T22:28:05;10;7;
43280;PMS5003;62175;49.416;8.690;2023-06-04T22:30:33;6;6;
43280;PMS5003;62175;49.416;8.690;2023-06-04T22:33:00;5;5;
43280;PMS5003;62175;49.416;8.690;2023-06-04T22:35:27;6;5;
43280;PMS5003;62175;49.416;8.690;2023-06-04T22:37:55;8;7;
43280;PMS5003;62175;49.416;8.690;2023-06-04T22:40:22;5;5;
43280;PMS5003;62175;49.416;8.690;2023-06-04T22:42:49;6;6;
43280;PMS5003;62175;49.416;8.690;2023-06-04T22:45:16;6;6;
43280;PMS5003;62175;49.416;8.690;2023-06-04T22:47:43;5;5;
43280;PMS5003;62175;49.416;8.690;2023-06-04T22:50:11;6;6;
43280;PMS5003;62175;49.416;8.690;2023-06-04T22:52:38;7;7;
43280;PMS5003;62175;49.416;8.690;2023-06-04T22:55:06;6;5;
43280;PMS5003;62175;49.416;8.690;2023-06-04T22:57:34;3;3;
43280;PMS5003;62175;49.416;8.690;2023-06-04T23:00:01;5;5;
43280;PMS5003;62175;49.416;8.690;2023-06-04T23:02:29;4;3;
43280;PMS5003;62175;49.416;8.690;2023-06-04T23:04:56;5;5;
43280;PMS5003;62175;49.416;8.690;2023-06-04T23:07:23;4;4;
43280;PMS5003;62175;49.416;8.690;2023-06-04T23:09:49;3;3;
43280;PMS5003;62175;49.416;8.690;2023-06-04T23:12:16;6;5;
43280;PMS5003;62175;49.416;8.690;2023-06-04T23:14:43;6;6;
43280;PMS5003;62175;49.416;8.690;2023-06-04T23:17:10;6;5;
43280;PMS5003;62175;49.416;8.690;2023-06-04T23:19:37;5;5;
43280;PMS5003;62175;49.416;8.690;2023-06-04T23:22:04;4;4;
43280;PMS5003;62175;49.416;8.690;2023-06-04T23:24:31;5;5;
43280;PMS5003;62175;49.416;8.690;2023-06-04T23:26:58;3;3;
43280;PMS5003;62175;49.416;8.690;2023-06-04T23:29:25;5;5;
43280;PMS5003;62175;49.416;8.690;2023-06-04T23:31:51;3;3;
43280;PMS5003;62175;49.416;8.690;2023-06-04T23:34:18;4;4;
43280;PMS5003;62175;49.416;8.690;2023-06-04T23:36:45;2;2;
43280;PMS5003;62175;49.416;8.690;2023-06-04T23:39:12;4;4;
43280;PMS5003;62175;49.416;8.690;2023-06-04T23:41:39;4;3;
43280;PMS5003;62175;49.416;8.690;2023-06-04T23:44:06;4;4;
43280;PMS5003;62175;49.416;8.690;2023-06-04T23:46:33;4;4;
43280;PMS5003;62175;49.416;8.690;2023-06-04T23:49:00;3;3;
43280;PMS5003;62175;49.416;8.690;2023-06-04T23:51:27;3;3;
43280;PMS5003;62175;49.416;8.690;2023-06-04T23:53:53;4;4;
43280;PMS5003;62175;49.416;8.690;2023-06-04T23:56:20;3;3;
43280;PMS5003;62175;49.416;8.690;2023-06-04T23:58:48;3;3;
